Time;durP1;ratioP1;P1;durP2;ratioP2;P2;SDS_P1;SDS_P2;PMS_P1;PMS_P2;Temp;Humidity;BMP_temperature;BMP_pressure;BME280_temperature;BME280_humidity;BME280_pressure;Samples;Min_cycle;Max_cycle;Signal;HPM_P1;HPM_P2
2022/06/21 00:00:32;;;;;;;14.65;6.57;;;;;;;;;;5137346;27;20047;-41
2022/06/21 00:03:08;;;;;;;21.02;6.03;;;;;;;;;;5140061;27;20050;-42
2022/06/21 00:05:35;;;;;;;7.50;6.03;;;;;;;;;;5136925;27;20659;-44
2022/06/21 00:08:03;;;;;;;23.23;5.82;;;;;;;;;;5140865;27;20062;-44
2022/06/21 00:10:34;;;;;;;8.23;6.90;;;;;;;;;;5140564;27;20133;-43
2022/06/21 00:12:59;;;;;;;12.15;5.72;;;;;;;;;;5136573;27;20050;-43
2022/06/21 00:15:25;;;;;;;10.07;4.88;;;;;;;;;;5137465;27;20964;-43
2022/06/21 00:17:50;;;;;;;9.70;3.28;;;;;;;;;;5138611;27;20042;-43
2022/06/21 00:20:20;;;;;;;13.38;4.28;;;;;;;;;;5137478;27;20075;-43
2022/06/21 00:22:46;;;;;;;8.60;2.60;;;;;;;;;;5138537;27;20059;-41
2022/06/21 00:25:15;;;;;;;16.98;4.13;;;;;;;;;;5138529;27;20051;-46
2022/06/21 00:27:41;;;;;;;11.18;4.40;;;;;;;;;;5138097;27;20080;-46
2022/06/21 00:30:06;;;;;;;18.42;4.68;;;;;;;;;;5141237;27;20049;-41
2022/06/21 00:32:31;;;;;;;12.00;3.00;;;;;;;;;;5136769;27;20047;-43
2022/06/21 00:34:57;;;;;;;11.10;4.38;;;;;;;;;;5137197;27;20051;-44
2022/06/21 00:37:22;;;;;;;5.90;2.83;;;;;;;;;;5139386;27;20049;-43
2022/06/21 00:39:48;;;;;;;8.93;3.33;;;;;;;;;;5137160;27;20043;-42
2022/06/21 00:42:22;;;;;;;7.25;2.88;;;;;;;;;;5136921;27;20038;-42
2022/06/21 00:45:08;;;;;;;8.60;3.70;;;;;;;;;;5136393;27;20079;-41
2022/06/21 00:47:33;;;;;;;7.15;2.15;;;;;;;;;;5095262;27;20157;-46
2022/06/21 00:50:00;;;;;;;2.75;1.70;;;;;;;;;;5142458;27;20234;-41
2022/06/21 00:52:52;;;;;;;18.33;6.55;;;;;;;;;;5137873;27;20047;-43
2022/06/21 00:55:23;;;;;;;14.18;6.40;;;;;;;;;;5132479;27;20034;-40
2022/06/21 00:57:52;;;;;;;24.92;7.43;;;;;;;;;;5137909;27;20046;-43
2022/06/21 01:00:30;;;;;;;10.35;7.50;;;;;;;;;;5137779;27;20046;-44
2022/06/21 01:02:56;;;;;;;13.82;6.60;;;;;;;;;;5140666;27;20049;-47
2022/06/21 01:05:22;;;;;;;8.60;5.97;;;;;;;;;;5137378;27;20053;-42
2022/06/21 01:07:48;;;;;;;12.13;6.43;;;;;;;;;;5137341;27;20042;-42
2022/06/21 01:10:16;;;;;;;13.13;7.68;;;;;;;;;;5141936;27;20544;-44
2022/06/21 01:12:41;;;;;;;15.73;7.13;;;;;;;;;;5138230;27;20535;-45
2022/06/21 01:15:09;;;;;;;9.55;5.03;;;;;;;;;;5138012;27;20070;-42
2022/06/21 01:17:34;;;;;;;9.90;4.95;;;;;;;;;;5140914;27;20043;-42
2022/06/21 01:20:01;;;;;;;10.45;6.25;;;;;;;;;;5141023;27;20103;-43
2022/06/21 01:22:38;;;;;;;17.90;5.78;;;;;;;;;;5139922;27;20054;-43
2022/06/21 01:25:22;;;;;;;8.23;4.75;;;;;;;;;;5140760;27;20050;-44
2022/06/21 01:27:48;;;;;;;15.48;7.15;;;;;;;;;;5137243;27;20038;-44
2022/06/21 01:30:13;;;;;;;19.65;7.72;;;;;;;;;;5136718;27;20819;-46
2022/06/21 01:32:38;;;;;;;11.45;7.50;;;;;;;;;;5135341;27;20071;-42
2022/06/21 01:35:16;;;;;;;9.40;6.93;;;;;;;;;;5138513;27;20069;-44
2022/06/21 01:37:41;;;;;;;12.45;7.88;;;;;;;;;;5135442;27;20586;-44
2022/06/21 01:40:12;;;;;;;12.30;6.55;;;;;;;;;;5135436;27;20103;-43
2022/06/21 01:42:44;;;;;;;12.95;7.07;;;;;;;;;;5137607;27;20057;-43
2022/06/21 01:45:12;;;;;;;17.45;7.85;;;;;;;;;;5136912;27;20039;-42
2022/06/21 01:47:41;;;;;;;12.05;7.70;;;;;;;;;;5137466;27;20038;-45
2022/06/21 01:50:09;;;;;;;14.60;6.72;;;;;;;;;;5138164;27;20047;-45
2022/06/21 01:52:35;;;;;;;10.95;6.50;;;;;;;;;;5135611;27;20031;-41
2022/06/21 01:55:06;;;;;;;14.48;6.60;;;;;;;;;;5133688;27;20043;-43
2022/06/21 01:57:31;;;;;;;;;;;;;;;;;;5137562;27;20042;-43
2022/06/21 01:59:58;;;;;;;11.70;7.03;;;;;;;;;;5139833;27;20166;-44
2022/06/21 02:02:26;;;;;;;16.02;7.22;;;;;;;;;;5139646;27;20333;-46
2022/06/21 02:04:57;;;;;;;22.85;6.90;;;;;;;;;;5137522;27;20074;-43
2022/06/21 02:07:25;;;;;;;30.75;6.88;;;;;;;;;;5137054;27;20124;-44
2022/06/21 02:09:55;;;;;;;18.88;8.50;;;;;;;;;;5138047;27;20069;-43
2022/06/21 02:12:20;;;;;;;6.63;4.72;;;;;;;;;;5138608;27;20038;-44
2022/06/21 02:14:48;;;;;;;12.80;6.80;;;;;;;;;;5135189;27;20051;-42
2022/06/21 02:17:19;;;;;;;12.65;7.53;;;;;;;;;;5134869;27;20082;-40
2022/06/21 02:19:44;;;;;;;;;;;;;;;;;;5138897;27;20077;-45
2022/06/21 02:22:13;;;;;;;10.27;5.07;;;;;;;;;;5135434;27;19915;-44
2022/06/21 02:24:39;;;;;;;23.73;8.15;;;;;;;;;;5136822;27;20150;-46
2022/06/21 02:27:05;;;;;;;23.80;7.40;;;;;;;;;;5139298;27;20528;-45
2022/06/21 02:29:31;;;;;;;9.57;6.38;;;;;;;;;;5140379;27;20038;-46
2022/06/21 02:31:57;;;;;;;21.90;9.07;;;;;;;;;;5136193;27;20043;-42
2022/06/21 02:34:27;;;;;;;20.05;7.10;;;;;;;;;;5142161;27;20153;-43
2022/06/21 02:36:54;;;;;;;12.55;5.68;;;;;;;;;;5136269;27;20126;-46
2022/06/21 02:39:21;;;;;;;16.55;6.70;;;;;;;;;;5140993;27;20364;-40
2022/06/21 02:41:49;;;;;;;21.98;8.60;;;;;;;;;;5138078;27;20065;-45
2022/06/21 02:44:19;;;;;;;10.85;7.53;;;;;;;;;;5136634;27;20055;-46
2022/06/21 02:46:50;;;;;;;16.45;5.68;;;;;;;;;;5138694;27;20089;-44
2022/06/21 02:49:21;;;;;;;12.13;6.80;;;;;;;;;;5136756;27;20122;-43
2022/06/21 02:52:13;;;;;;;12.15;6.97;;;;;;;;;;5138269;27;20051;-45
2022/06/21 02:54:42;;;;;;;11.18;5.70;;;;;;;;;;5131650;27;20042;-44
2022/06/21 02:57:11;;;;;;;7.93;5.97;;;;;;;;;;5137567;27;20049;-45
2022/06/21 02:59:38;;;;;;;32.90;7.45;;;;;;;;;;5134692;27;20055;-43
2022/06/21 03:02:07;;;;;;;13.13;6.78;;;;;;;;;;5133964;27;20522;-43
2022/06/21 03:04:42;;;;;;;11.88;7.68;;;;;;;;;;5136950;27;20046;-42
2022/06/21 03:07:12;;;;;;;12.25;7.32;;;;;;;;;;5137584;27;20108;-44
2022/06/21 03:09:37;;;;;;;14.60;8.68;;;;;;;;;;5137913;27;20085;-46
2022/06/21 03:12:04;;;;;;;30.02;7.43;;;;;;;;;;5136375;27;20250;-46
2022/06/21 03:14:31;;;;;;;10.10;7.63;;;;;;;;;;5133844;27;20629;-46
2022/06/21 03:17:00;;;;;;;13.00;6.38;;;;;;;;;;5135036;27;20168;-49
2022/06/21 03:19:28;;;;;;;10.68;6.18;;;;;;;;;;5132299;27;20533;-47
2022/06/21 03:21:54;;;;;;;9.45;7.43;;;;;;;;;;5134034;27;20051;-42
2022/06/21 03:24:23;;;;;;;17.27;6.85;;;;;;;;;;5133999;27;20047;-44
2022/06/21 03:26:52;;;;;;;16.70;8.32;;;;;;;;;;5136975;27;20100;-44
2022/06/21 03:29:18;;;;;;;15.63;7.18;;;;;;;;;;5135732;27;20119;-47
2022/06/21 03:31:48;;;;;;;12.27;8.52;;;;;;;;;;5133231;27;20039;-47
2022/06/21 03:34:15;;;;;;;16.45;7.03;;;;;;;;;;5137270;27;20844;-43
2022/06/21 03:36:40;;;;;;;12.35;6.60;;;;;;;;;;5130575;27;20057;-44
2022/06/21 03:39:10;;;;;;;17.33;9.15;;;;;;;;;;5135980;27;20047;-43
2022/06/21 03:41:43;;;;;;;19.15;8.10;;;;;;;;;;5138883;27;20057;-44
2022/06/21 03:44:20;;;;;;;11.35;7.15;;;;;;;;;;5136086;27;20047;-46
2022/06/21 03:47:04;;;;;;;18.75;6.38;;;;;;;;;;5137449;27;20063;-42
2022/06/21 03:49:34;;;;;;;14.00;6.88;;;;;;;;;;5137005;27;20082;-43
2022/06/21 03:52:02;;;;;;;12.18;7.47;;;;;;;;;;5136237;27;20061;-45
2022/06/21 03:54:30;;;;;;;15.82;8.52;;;;;;;;;;5140638;27;20035;-43
2022/06/21 03:56:58;;;;;;;9.70;6.82;;;;;;;;;;5140697;27;20095;-42
2022/06/21 03:59:32;;;;;;;11.23;5.88;;;;;;;;;;5142111;27;20080;-43
2022/06/21 04:02:01;;;;;;;16.83;6.95;;;;;;;;;;5135549;27;20107;-42
2022/06/21 04:04:39;;;;;;;8.77;6.63;;;;;;;;;;5141445;27;20054;-41
2022/06/21 04:07:23;;;;;;;10.35;7.18;;;;;;;;;;5140440;27;20039;-42
2022/06/21 04:10:15;;;;;;;8.77;7.60;;;;;;;;;;5141512;27;20054;-44
2022/06/21 04:12:50;;;;;;;24.05;7.15;;;;;;;;;;5112128;27;20055;-42
2022/06/21 04:15:33;;;;;;;10.80;8.63;;;;;;;;;;5140069;27;20069;-46
2022/06/21 04:18:28;;;;;;;7.43;6.43;;;;;;;;;;5144601;27;20141;-43
2022/06/21 04:21:05;;;;;;;15.45;6.85;;;;;;;;;;5089126;27;20571;-45
2022/06/21 04:23:31;;;;;;;20.42;8.00;;;;;;;;;;5140763;27;20224;-43
2022/06/21 04:25:59;;;;;;;14.27;6.65;;;;;;;;;;5143560;27;20581;-42
2022/06/21 04:28:45;;;;;;;10.77;7.45;;;;;;;;;;5143407;27;20125;-45
2022/06/21 04:31:13;;;;;;;11.23;7.38;;;;;;;;;;5120678;27;20121;-45
2022/06/21 04:33:57;;;;;;;15.10;7.53;;;;;;;;;;5137833;27;20038;-45
2022/06/21 04:36:22;;;;;;;13.65;7.68;;;;;;;;;;5142631;27;20043;-43
2022/06/21 04:38:53;;;;;;;11.68;6.65;;;;;;;;;;5142137;27;20114;-44
2022/06/21 04:41:23;;;;;;;10.80;6.93;;;;;;;;;;5140553;27;20057;-43
2022/06/21 04:43:54;;;;;;;14.30;8.30;;;;;;;;;;5140699;27;20119;-46
2022/06/21 04:46:40;;;;;;;15.23;8.05;;;;;;;;;;5142780;27;20122;-42
2022/06/21 04:49:12;;;;;;;15.13;7.70;;;;;;;;;;5140876;27;20037;-45
2022/06/21 04:51:58;;;;;;;18.70;8.82;;;;;;;;;;5139469;27;20069;-49
2022/06/21 04:54:25;;;;;;;14.82;8.52;;;;;;;;;;5140156;27;20057;-44
2022/06/21 04:56:59;;;;;;;14.93;7.65;;;;;;;;;;5139547;27;20043;-43
2022/06/21 04:59:26;;;;;;;10.98;6.50;;;;;;;;;;5142979;27;20050;-43
2022/06/21 05:01:52;;;;;;;12.45;6.75;;;;;;;;;;5139392;27;20455;-45
2022/06/21 05:04:19;;;;;;;8.73;7.07;;;;;;;;;;5141650;27;20047;-45
2022/06/21 05:06:45;;;;;;;11.85;8.02;;;;;;;;;;5139521;27;20131;-44
2022/06/21 05:09:18;;;;;;;19.48;6.97;;;;;;;;;;5138605;27;20073;-45
2022/06/21 05:11:44;;;;;;;22.45;6.93;;;;;;;;;;5141634;27;20070;-43
2022/06/21 05:14:17;;;;;;;15.45;5.45;;;;;;;;;;5140235;27;20493;-48
2022/06/21 05:16:42;;;;;;;12.65;7.32;;;;;;;;;;5138384;27;20039;-46
2022/06/21 05:19:13;;;;;;;12.52;4.63;;;;;;;;;;5138406;27;20532;-42
2022/06/21 05:21:42;;;;;;;13.60;5.20;;;;;;;;;;5141285;27;20045;-46
2022/06/21 05:24:09;;;;;;;11.70;5.55;;;;;;;;;;5141313;27;20149;-42
2022/06/21 05:26:38;;;;;;;9.65;5.95;;;;;;;;;;5140553;27;20273;-44
2022/06/21 05:29:12;;;;;;;6.30;4.25;;;;;;;;;;5136844;27;20042;-44
2022/06/21 05:31:39;;;;;;;18.80;8.23;;;;;;;;;;5143512;27;20041;-43
2022/06/21 05:34:10;;;;;;;18.05;7.30;;;;;;;;;;5139044;27;20039;-42
2022/06/21 05:36:49;;;;;;;8.90;5.47;;;;;;;;;;5141776;27;20050;-46
2022/06/21 05:39:22;;;;;;;8.88;5.63;;;;;;;;;;5139255;27;20050;-42
2022/06/21 05:41:52;;;;;;;8.02;5.22;;;;;;;;;;5135795;27;20039;-46
2022/06/21 05:44:26;;;;;;;9.63;6.13;;;;;;;;;;5138075;27;20094;-45
2022/06/21 05:46:56;;;;;;;15.32;8.68;;;;;;;;;;5140873;27;20607;-47
2022/06/21 05:49:23;;;;;;;12.40;8.37;;;;;;;;;;5141716;27;20092;-44
2022/06/21 05:51:50;;;;;;;14.13;5.53;;;;;;;;;;5140717;27;20090;-47
2022/06/21 05:54:17;;;;;;;16.75;5.43;;;;;;;;;;5138859;27;20045;-48
2022/06/21 05:56:42;;;;;;;12.75;5.40;;;;;;;;;;5139996;27;20107;-49
2022/06/21 05:59:11;;;;;;;9.80;3.05;;;;;;;;;;5140447;27;20042;-47
2022/06/21 06:01:36;;;;;;;10.05;4.22;;;;;;;;;;5140298;27;20047;-43
2022/06/21 06:04:01;;;;;;;13.95;4.00;;;;;;;;;;5137957;27;20534;-44
2022/06/21 06:06:30;;;;;;;11.95;4.13;;;;;;;;;;5138106;27;20042;-47
2022/06/21 06:09:00;;;;;;;13.82;5.07;;;;;;;;;;5135923;27;20039;-43
2022/06/21 06:11:57;;;;;;;13.07;4.22;;;;;;;;;;5140536;27;20227;-44
2022/06/21 06:14:13;;;;;;;5.72;3.80;;;;;;;;;;5136977;27;20413;-48
2022/06/21 06:16:39;;;;;;;9.50;4.10;;;;;;;;;;5136274;27;20046;-42
2022/06/21 06:19:24;;;;;;;8.13;2.85;;;;;;;;;;5137709;27;20054;-42
2022/06/21 06:22:07;;;;;;;5.70;2.72;;;;;;;;;;5136315;27;20103;-45
2022/06/21 06:24:37;;;;;;;3.72;2.72;;;;;;;;;;5137141;27;20039;-43
2022/06/21 06:27:03;;;;;;;15.05;5.20;;;;;;;;;;5135250;27;20051;-44
2022/06/21 06:29:41;;;;;;;25.33;5.53;;;;;;;;;;5136807;27;20039;-43
2022/06/21 06:32:12;;;;;;;19.55;5.38;;;;;;;;;;5137956;27;20593;-54
2022/06/21 06:34:42;;;;;;;11.85;5.88;;;;;;;;;;5137319;27;20091;-54
2022/06/21 06:37:25;;;;;;;26.67;5.03;;;;;;;;;;5142548;27;20150;-55
2022/06/21 06:39:50;;;;;;;32.30;9.15;;;;;;;;;;5116515;27;20121;-54
2022/06/21 06:42:20;;;;;;;29.95;8.35;;;;;;;;;;5140687;27;20153;-54
2022/06/21 06:44:45;;;;;;;15.93;5.28;;;;;;;;;;5141482;27;20077;-55
2022/06/21 06:47:13;;;;;;;13.50;3.45;;;;;;;;;;5138744;27;20066;-54
2022/06/21 06:49:49;;;;;;;23.23;4.85;;;;;;;;;;5139046;27;20053;-55
2022/06/21 06:52:15;;;;;;;14.25;5.00;;;;;;;;;;5137851;27;20089;-56
2022/06/21 06:55:03;;;;;;;6.32;2.97;;;;;;;;;;5140391;27;20046;-54
2022/06/21 06:57:34;;;;;;;16.08;4.70;;;;;;;;;;5139922;27;20188;-54
2022/06/21 07:00:01;;;;;;;14.80;3.80;;;;;;;;;;5136479;27;20175;-54
2022/06/21 07:02:33;;;;;;;4.57;2.28;;;;;;;;;;5136578;27;20078;-53
2022/06/21 07:05:02;;;;;;;12.05;5.30;;;;;;;;;;5140522;27;20033;-53
2022/06/21 07:07:32;;;;;;;10.15;4.90;;;;;;;;;;5136086;27;20084;-55
2022/06/21 07:10:02;;;;;;;24.38;4.47;;;;;;;;;;5141405;27;20137;-54
2022/06/21 07:12:28;;;;;;;10.30;5.07;;;;;;;;;;5138101;27;20155;-52
2022/06/21 07:14:55;;;;;;;12.00;2.53;;;;;;;;;;5137146;27;20043;-50
2022/06/21 07:17:32;;;;;;;9.63;3.22;;;;;;;;;;5135753;27;20131;-48
2022/06/21 07:19:58;;;;;;;11.38;2.28;;;;;;;;;;5137061;27;20077;-52
2022/06/21 07:22:34;;;;;;;28.50;5.22;;;;;;;;;;5141827;27;20077;-50
2022/06/21 07:25:02;;;;;;;24.70;6.63;;;;;;;;;;5141064;27;20038;-51
2022/06/21 07:27:28;;;;;;;13.15;4.28;;;;;;;;;;5138297;27;20124;-53
2022/06/21 07:30:09;;;;;;;6.03;2.85;;;;;;;;;;5141092;27;20057;-52
2022/06/21 07:32:34;;;;;;;;;;;;;;;;;;5142220;27;20051;-52
2022/06/21 07:35:24;;;;;;;6.57;2.55;;;;;;;;;;5140732;27;20369;-54
2022/06/21 07:38:09;;;;;;;11.68;2.25;;;;;;;;;;5094486;27;20050;-50
2022/06/21 07:40:37;;;;;;;13.32;3.65;;;;;;;;;;5142795;27;20135;-51
2022/06/21 07:43:21;;;;;;;7.78;3.55;;;;;;;;;;5141536;27;20046;-49
2022/06/21 07:45:54;;;;;;;27.42;4.35;;;;;;;;;;5141854;27;20039;-53
2022/06/21 07:48:19;;;;;;;5.43;2.80;;;;;;;;;;5139172;27;20128;-53
2022/06/21 07:50:44;;;;;;;11.57;2.85;;;;;;;;;;5142461;27;20042;-55
2022/06/21 07:53:17;;;;;;;10.60;4.57;;;;;;;;;;5143093;27;20095;-52
2022/06/21 07:55:48;;;;;;;8.73;4.15;;;;;;;;;;5140174;27;20035;-52
2022/06/21 07:58:20;;;;;;;5.68;2.88;;;;;;;;;;5137157;27;20161;-53
2022/06/21 08:09:13;;;;;;;22.15;7.78;;;;;;;;;;5139124;27;20066;-49
2022/06/21 08:11:39;;;;;;;14.75;4.50;;;;;;;;;;5141069;27;20528;-51
2022/06/21 08:14:04;;;;;;;7.13;4.30;;;;;;;;;;5140549;27;20039;-49
2022/06/21 08:16:39;;;;;;;6.40;3.30;;;;;;;;;;5136227;27;20521;-49
2022/06/21 08:19:04;;;;;;;19.15;4.30;;;;;;;;;;5140882;27;20134;-53
2022/06/21 08:21:34;;;;;;;11.20;3.72;;;;;;;;;;5141339;27;20149;-50
2022/06/21 08:24:21;;;;;;;6.63;2.70;;;;;;;;;;5137805;27;20129;-52
2022/06/21 08:26:47;;;;;;;15.05;5.05;;;;;;;;;;5142379;27;20275;-50
2022/06/21 08:29:19;;;;;;;40.28;11.98;;;;;;;;;;5140459;27;20050;-50
2022/06/21 08:31:47;;;;;;;65.40;9.85;;;;;;;;;;5140118;27;20035;-50
2022/06/21 08:34:12;;;;;;;30.42;10.77;;;;;;;;;;5138806;27;20047;-51
2022/06/21 08:37:04;;;;;;;78.53;19.15;;;;;;;;;;5139282;27;20058;-53
2022/06/21 08:39:34;;;;;;;4.25;2.97;;;;;;;;;;5101401;27;20039;-54
2022/06/21 08:42:06;;;;;;;13.93;5.30;;;;;;;;;;5144749;27;20062;-52
2022/06/21 08:44:49;;;;;;;9.50;2.92;;;;;;;;;;5140785;27;20050;-47
2022/06/21 08:47:20;;;;;;;20.75;5.50;;;;;;;;;;5140019;27;20039;-50
2022/06/21 08:49:52;;;;;;;4.50;1.75;;;;;;;;;;5135615;27;20039;-52
2022/06/21 08:52:29;;;;;;;13.27;3.45;;;;;;;;;;5137329;27;20049;-49
2022/06/21 08:55:13;;;;;;;8.30;4.57;;;;;;;;;;5138856;27;20047;-52
2022/06/21 08:57:44;;;;;;;6.18;2.95;;;;;;;;;;5140249;27;20536;-51
2022/06/21 09:00:24;;;;;;;20.00;5.60;;;;;;;;;;5141386;27;20077;-49
2022/06/21 09:03:13;;;;;;;4.72;1.77;;;;;;;;;;5139189;27;20118;-52
2022/06/21 09:05:53;;;;;;;8.95;3.08;;;;;;;;;;5130956;27;20061;-51
2022/06/21 09:08:28;;;;;;;9.68;5.10;;;;;;;;;;5139226;27;20132;-53
2022/06/21 09:11:01;;;;;;;9.93;3.47;;;;;;;;;;5137812;27;20054;-48
2022/06/21 09:13:26;;;;;;;4.70;3.00;;;;;;;;;;5141262;27;20039;-50
2022/06/21 09:15:57;;;;;;;11.02;5.32;;;;;;;;;;5140400;27;20340;-53
2022/06/21 09:18:26;;;;;;;14.23;2.83;;;;;;;;;;5140585;27;20126;-49
2022/06/21 09:21:07;;;;;;;7.65;1.98;;;;;;;;;;5139122;27;20106;-54
2022/06/21 09:23:48;;;;;;;11.10;2.95;;;;;;;;;;5142397;27;20051;-53
2022/06/21 09:26:19;;;;;;;8.15;3.35;;;;;;;;;;5138818;27;20592;-53
2022/06/21 09:28:57;;;;;;;7.57;3.35;;;;;;;;;;5137338;27;20395;-53
2022/06/21 09:31:36;;;;;;;14.10;3.55;;;;;;;;;;5135720;27;20039;-51
2022/06/21 09:34:07;;;;;;;7.20;3.80;;;;;;;;;;5138577;27;20041;-50
2022/06/21 09:36:32;;;;;;;15.18;5.53;;;;;;;;;;5138187;27;20114;-49
2022/06/21 09:39:08;;;;;;;9.10;4.15;;;;;;;;;;5138381;27;20038;-54
2022/06/21 09:41:38;;;;;;;11.80;4.93;;;;;;;;;;5141825;27;20051;-48
2022/06/21 09:44:21;;;;;;;9.82;4.75;;;;;;;;;;5137509;27;20043;-53
2022/06/21 09:46:47;;;;;;;10.55;5.53;;;;;;;;;;5139556;27;20050;-53
2022/06/21 09:49:31;;;;;;;9.75;4.10;;;;;;;;;;5137715;27;20783;-51
2022/06/21 09:51:56;;;;;;;7.60;3.90;;;;;;;;;;5137789;27;20126;-50
2022/06/21 09:54:21;;;;;;;15.52;5.60;;;;;;;;;;5141596;27;20553;-55
2022/06/21 09:56:51;;;;;;;17.00;6.45;;;;;;;;;;5138293;27;20050;-54
2022/06/21 09:59:23;;;;;;;17.52;12.05;;;;;;;;;;5138162;27;20038;-50
2022/06/21 10:01:54;;;;;;;13.30;6.32;;;;;;;;;;5138080;27;20054;-48
2022/06/21 10:04:31;;;;;;;10.75;4.80;;;;;;;;;;5141272;27;20098;-51
2022/06/21 10:07:04;;;;;;;22.85;6.57;;;;;;;;;;5138544;27;20039;-51
2022/06/21 10:09:29;;;;;;;13.55;6.18;;;;;;;;;;5136786;27;20039;-51
2022/06/21 10:11:57;;;;;;;7.47;4.40;;;;;;;;;;5138621;27;20040;-53
2022/06/21 10:14:42;;;;;;;15.13;6.63;;;;;;;;;;5141210;27;20449;-53
2022/06/21 10:17:07;;;;;;;19.05;6.15;;;;;;;;;;5137588;27;20459;-53
2022/06/21 10:19:44;;;;;;;143.90;39.47;;;;;;;;;;5139381;27;20042;-52
2022/06/21 10:22:33;;;;;;;5.90;4.18;;;;;;;;;;5140286;27;20062;-53
2022/06/21 10:24:58;;;;;;;25.02;5.95;;;;;;;;;;5129699;27;20042;-50
2022/06/21 10:27:24;;;;;;;21.02;6.90;;;;;;;;;;5139318;27;20091;-54
2022/06/21 10:29:55;;;;;;;18.25;7.35;;;;;;;;;;5138171;27;20145;-51
2022/06/21 10:32:26;;;;;;;10.90;5.45;;;;;;;;;;5138238;27;20039;-50
2022/06/21 10:35:06;;;;;;;12.32;8.02;;;;;;;;;;5141670;27;20381;-53
2022/06/21 10:37:50;;;;;;;17.83;9.13;;;;;;;;;;5139009;27;20074;-53
2022/06/21 10:40:33;;;;;;;16.52;6.28;;;;;;;;;;5138965;27;20081;-52
2022/06/21 10:43:05;;;;;;;12.57;5.72;;;;;;;;;;5137963;27;20049;-49
2022/06/21 10:45:35;;;;;;;13.63;7.40;;;;;;;;;;5141734;27;20299;-49
2022/06/21 10:48:07;;;;;;;12.95;6.50;;;;;;;;;;5138550;27;20043;-52
2022/06/21 10:50:56;;;;;;;8.10;3.67;;;;;;;;;;5137537;27;20043;-55
2022/06/21 10:53:25;;;;;;;3.67;2.92;;;;;;;;;;5130169;27;20030;-57
2022/06/21 10:58:57;;;;;;;18.13;3.65;;;;;;;;;;5139100;27;20146;-55
2022/06/21 11:01:36;;;;;;;9.43;5.43;;;;;;;;;;5139774;27;20046;-56
2022/06/21 11:04:11;;;;;;;7.40;4.30;;;;;;;;;;5140043;27;20031;-54
2022/06/21 11:06:56;;;;;;;15.85;3.92;;;;;;;;;;5139822;27;20042;-56
2022/06/21 11:09:35;;;;;;;11.93;4.10;;;;;;;;;;5134860;27;20046;-56
2022/06/21 11:15:00;;;;;;;17.35;6.90;;;;;;;;;;5143587;27;20205;-53
2022/06/21 11:17:40;;;;;;;18.40;5.72;;;;;;;;;;5142067;27;20091;-52
2022/06/21 11:20:05;;;;;;;;;;;;;;;;;;5139478;27;20043;-51
2022/06/21 11:22:59;;;;;;;22.83;6.00;;;;;;;;;;5142761;27;19914;-52
2022/06/21 11:25:30;;;;;;;22.63;4.28;;;;;;;;;;5139334;27;20047;-51
2022/06/21 11:27:58;;;;;;;6.82;4.15;;;;;;;;;;5142951;27;20051;-52
2022/06/21 11:30:23;;;;;;;14.68;4.97;;;;;;;;;;5140558;27;20043;-53
2022/06/21 11:32:59;;;;;;;8.32;5.13;;;;;;;;;;5138931;27;20034;-52
2022/06/21 11:35:36;;;;;;;18.52;6.25;;;;;;;;;;5124006;27;20399;-51
2022/06/21 11:38:14;;;;;;;16.52;5.75;;;;;;;;;;5141596;27;20497;-53
2022/06/21 11:40:57;;;;;;;12.43;5.10;;;;;;;;;;5140730;27;20046;-52
2022/06/21 11:43:25;;;;;;;17.30;6.43;;;;;;;;;;5141491;27;20116;-50
2022/06/21 11:45:57;;;;;;;79.97;11.35;;;;;;;;;;5141128;27;20532;-54
2022/06/21 11:48:25;;;;;;;10.52;5.53;;;;;;;;;;5141630;27;20125;-54
2022/06/21 11:51:01;;;;;;;12.15;5.75;;;;;;;;;;5140788;27;20087;-52
2022/06/21 11:53:37;;;;;;;13.98;5.95;;;;;;;;;;5125503;27;20058;-54
2022/06/21 11:56:02;;;;;;;18.50;5.43;;;;;;;;;;5137888;27;20042;-53
2022/06/21 11:58:31;;;;;;;12.18;6.18;;;;;;;;;;5141597;27;20047;-53
2022/06/21 12:00:56;;;;;;;12.75;5.70;;;;;;;;;;5139370;27;20506;-54
2022/06/21 12:03:27;;;;;;;15.88;4.53;;;;;;;;;;5143817;27;21139;-49
2022/06/21 12:05:54;;;;;;;15.80;3.95;;;;;;;;;;5144482;27;20171;-49
2022/06/21 12:08:28;;;;;;;34.38;12.02;;;;;;;;;;5141962;27;20545;-49
2022/06/21 12:10:56;;;;;;;11.63;4.40;;;;;;;;;;5141743;27;20031;-47
2022/06/21 12:13:21;;;;;;;8.73;2.95;;;;;;;;;;5144799;27;20070;-50
2022/06/21 12:16:05;;;;;;;14.27;3.15;;;;;;;;;;5138133;27;20091;-49
2022/06/21 12:18:32;;;;;;;10.80;4.95;;;;;;;;;;5140640;27;20039;-51
2022/06/21 12:20:57;;;;;;;6.60;5.32;;;;;;;;;;5141083;27;20039;-52
2022/06/21 12:23:41;;;;;;;13.02;3.58;;;;;;;;;;5141168;27;20066;-52
2022/06/21 12:26:09;;;;;;;12.52;5.32;;;;;;;;;;5136805;27;20039;-53
2022/06/21 12:28:35;;;;;;;20.92;6.50;;;;;;;;;;5141846;27;20095;-52
2022/06/21 12:31:03;;;;;;;13.38;6.38;;;;;;;;;;5145007;27;20485;-49
2022/06/21 12:33:36;;;;;;;22.55;5.05;;;;;;;;;;5135896;27;20047;-50
2022/06/21 12:36:01;;;;;;;11.82;6.55;;;;;;;;;;5141465;27;20046;-48
2022/06/21 12:38:39;;;;;;;16.40;5.10;;;;;;;;;;5138662;27;20042;-55
2022/06/21 12:41:26;;;;;;;14.60;5.22;;;;;;;;;;5137876;27;20046;-46
2022/06/21 12:44:03;;;;;;;12.18;4.78;;;;;;;;;;5135427;27;20047;-49
2022/06/21 12:46:39;;;;;;;17.88;4.32;;;;;;;;;;5136786;27;20088;-46
2022/06/21 12:49:07;;;;;;;20.52;6.43;;;;;;;;;;5138405;27;20039;-50
2022/06/21 12:51:53;;;;;;;8.30;3.90;;;;;;;;;;5136829;27;20039;-44
2022/06/21 12:54:36;;;;;;;3.80;2.22;;;;;;;;;;5138091;27;20134;-45
2022/06/21 12:57:10;;;;;;;24.02;6.93;;;;;;;;;;5139511;27;20061;-45
2022/06/21 12:59:49;;;;;;;17.30;6.18;;;;;;;;;;5134826;27;20133;-46
2022/06/21 13:02:33;;;;;;;21.98;6.47;;;;;;;;;;5138541;27;20121;-47
2022/06/21 13:05:05;;;;;;;33.95;5.60;;;;;;;;;;5135204;27;20436;-46
2022/06/21 13:08:03;;;;;;;6.03;3.28;;;;;;;;;;5139078;27;20255;-46
2022/06/21 13:10:43;;;;;;;10.95;3.15;;;;;;;;;;5139025;27;20041;-48
2022/06/21 13:13:27;;;;;;;8.73;5.15;;;;;;;;;;5135210;27;20042;-46
2022/06/21 13:16:10;;;;;;;8.32;3.58;;;;;;;;;;5137631;27;20139;-47
2022/06/21 13:18:38;;;;;;;20.13;5.18;;;;;;;;;;5136362;27;20099;-48
2022/06/21 13:21:09;;;;;;;9.23;3.13;;;;;;;;;;5137468;27;20051;-44
2022/06/21 13:23:38;;;;;;;9.05;2.70;;;;;;;;;;5138477;27;20140;-49
2022/06/21 13:26:22;;;;;;;6.35;3.40;;;;;;;;;;5136282;27;20118;-45
2022/06/21 13:28:58;;;;;;;15.27;4.65;;;;;;;;;;5140089;27;20054;-48
2022/06/21 13:31:32;;;;;;;6.55;3.90;;;;;;;;;;5139261;27;20031;-47
2022/06/21 13:33:57;;;;;;;9.35;3.60;;;;;;;;;;5140146;27;20061;-48
2022/06/21 13:36:41;;;;;;;12.07;4.50;;;;;;;;;;5133140;27;20834;-49
2022/06/21 13:39:22;;;;;;;9.32;5.70;;;;;;;;;;5136714;27;20039;-47
2022/06/21 13:44:37;;;;;;;7.55;2.90;;;;;;;;;;5136222;27;20285;-47
2022/06/21 13:47:11;;;;;;;6.75;2.38;;;;;;;;;;5136575;27;20047;-47
2022/06/21 13:49:41;;;;;;;3.58;1.70;;;;;;;;;;5139244;27;20065;-47
2022/06/21 13:52:27;;;;;;;6.30;3.05;;;;;;;;;;5137599;27;20038;-44
2022/06/21 13:54:52;;;;;;;13.07;4.75;;;;;;;;;;5136246;27;20039;-47
2022/06/21 13:57:33;;;;;;;12.25;5.43;;;;;;;;;;5133642;27;20235;-49
2022/06/21 13:59:59;;;;;;;18.65;5.63;;;;;;;;;;5137679;27;20520;-47
2022/06/21 14:02:24;;;;;;;12.25;5.60;;;;;;;;;;5132283;27;20167;-44
2022/06/21 14:05:06;;;;;;;8.75;3.53;;;;;;;;;;5136036;27;20043;-46
2022/06/21 14:07:42;;;;;;;27.15;7.38;;;;;;;;;;5138202;27;20039;-49
2022/06/21 14:10:19;;;;;;;6.57;2.75;;;;;;;;;;5138938;27;20054;-47
2022/06/21 14:12:50;;;;;;;2.97;2.55;;;;;;;;;;5135830;27;20035;-48
2022/06/21 14:15:16;;;;;;;11.30;3.10;;;;;;;;;;5132445;27;20072;-47
2022/06/21 14:17:44;;;;;;;5.93;2.58;;;;;;;;;;5132271;27;20731;-45
2022/06/21 14:20:09;;;;;;;8.45;3.00;;;;;;;;;;5136379;27;20045;-47
2022/06/21 14:22:40;;;;;;;17.08;3.88;;;;;;;;;;5139786;27;20043;-46
2022/06/21 14:25:38;;;;;;;14.90;4.35;;;;;;;;;;5133505;27;20086;-45
2022/06/21 14:28:12;;;;;;;5.43;2.22;;;;;;;;;;5089904;27;20391;-47
2022/06/21 14:30:50;;;;;;;4.18;2.53;;;;;;;;;;5136986;27;20053;-45
2022/06/21 14:33:27;;;;;;;14.95;3.08;;;;;;;;;;5135956;27;20552;-46
2022/06/21 14:35:56;;;;;;;6.03;1.88;;;;;;;;;;5135567;27;20049;-46
2022/06/21 14:38:24;;;;;;;6.82;2.40;;;;;;;;;;5132683;27;20035;-46
2022/06/21 14:41:02;;;;;;;4.72;1.98;;;;;;;;;;5133949;27;20517;-45
2022/06/21 14:43:33;;;;;;;9.43;5.03;;;;;;;;;;5134151;27;20074;-48
2022/06/21 14:45:59;;;;;;;;;;;;;;;;;;5135560;27;20042;-46
2022/06/21 14:48:29;;;;;;;12.18;4.10;;;;;;;;;;5134869;27;20330;-50
2022/06/21 14:50:57;;;;;;;11.60;4.63;;;;;;;;;;5134879;27;20046;-45
2022/06/21 14:53:41;;;;;;;12.73;5.95;;;;;;;;;;5138851;27;20039;-46
2022/06/21 14:56:12;;;;;;;30.50;5.65;;;;;;;;;;5135684;27;20034;-43
2022/06/21 14:58:38;;;;;;;13.40;4.07;;;;;;;;;;5135775;27;20077;-45
2022/06/21 15:01:03;;;;;;;9.40;4.70;;;;;;;;;;5137554;27;20104;-50
2022/06/21 15:03:28;;;;;;;2.55;1.30;;;;;;;;;;5133062;27;20047;-45
2022/06/21 15:06:05;;;;;;;5.90;1.58;;;;;;;;;;5132313;27;20069;-46
2022/06/21 15:08:31;;;;;;;9.77;3.55;;;;;;;;;;5135167;27;20039;-43
2022/06/21 15:14:15;;;;;;;16.05;5.85;;;;;;;;;;5097356;27;20143;-44
2022/06/21 15:16:46;;;;;;;28.00;5.65;;;;;;;;;;5135086;27;20035;-45
2022/06/21 15:22:19;;;;;;;22.52;4.88;;;;;;;;;;5135549;27;20046;-48
2022/06/21 15:24:46;;;;;;;22.58;5.85;;;;;;;;;;5139201;27;20050;-44
2022/06/21 15:27:14;;;;;;;16.98;3.88;;;;;;;;;;5141069;27;20043;-46